Mount Desert, ME (04660)

6:30 PM EST on December 02, 2016 (GMT -0500)
Pretty Marsh | | Change Station

Elev 66 ft 44.34 °N, 68.41 °W | Updated 4 days ago

Cloudy
Cloudy
39 °F
Feels Like 36 °F
N
4
Wind Variable Wind from West
Gusts mph

Today
High -- | Low -- °F
--% Chance of Precip.
Yesterday
High -- | Low -- °F
Precip. -- in
Pressure 29.66 in
Visibility 10.0 miles
Clouds Scattered Clouds 4000 ft
Mostly Cloudy 4900 ft
Overcast 7000 ft
Windchill 36 °F
Dew Point 36 °F
Humidity 89%
Rainfall in
Snow Depth Not available.
6:50 AM 3:55 PM
Waxing Crescent, 11% visible
METAR KBHB 022256Z AUTO 00000KT 10SM -RA SCT040 BKN049 OVC070 04/03 A2965 RMK AO2 RAE12B43 SLP043 P0000 T00440033
Pressure 29.66 in
Visibility 10.0 miles
Clouds Scattered Clouds 4000 ft
Mostly Cloudy 4900 ft
Overcast 7000 ft
Windchill 36 °F
Dew Point 36 °F
Humidity 89%
Rainfall in
Snow Depth Not available.
6:50 AM 3:55 PM
Waxing Crescent, 11% visible
METAR KBHB 022256Z AUTO 00000KT 10SM -RA SCT040 BKN049 OVC070 04/03 A2965 RMK AO2 RAE12B43 SLP043 P0000 T00440033

10-Day Weather Forecast

Almanac

Astronomy

Dec. 02, 2016 Rise Set
Actual Time
Civil Twilight
Nautical Twilight
Astronomical Twilight
Moon
Length of Visible Light
Length of Day
Tomorrow will be .
, % of the Moon is Illuminated

Today's Extremes

State Highs State Lows

Community

WunderPhotos

Upload Photos

1,955,378 photos uploaded!

WunderBlog® & News

Nearby

Air Quality

  Air Quality AQ Index Pollutant
Not available.

Snow Depth

Station Depth Elevation

Earthquake Activity

City Distance Mag. Time & Date
Minimum magnitude displayed is 2.5.

Coastal Water Temperatures

Place Temperature

Stations

Nearby Weather Stations

Station Location Temp. Windchill Dew Point Humidity Wind Precip. Elev Updated Type
                   

Watches & Warnings

There are currently no watches in effect.